Terminal Aerodrome Forecast
Issued by NWS

Home | Current Version | Previous Version | Graphics & Text | Print | Product List | Glossary On
Versions: 1 2 3 4 5 6 7 8 9 10 11 12 13 14 15 16
000
FTUS43 KIWX 251738
TAFSBN
TAF
KSBN 251738Z 2518/2618 09007KT 6SM BR VCSH BKN090
     FM252100 10010KT 4SM SHRA BR BKN025 OVC040
      TEMPO 2521/2601 2SM SHRA BR BKN008 OVC025
     FM260600 11009KT 2SM SHRA BR OVC008=

USA.gov is the U.S. government's official web portal to all federal, state and local government web resources and services.